Westminster, CO

2:33 PM MDT on March 24, 2017 (GMT -0600)
Hidden Lake Subdivision | | Change Station

Elev 5315 ft 39.82 °N, 105.05 °W | Updated 10 seconds ago

Mostly Cloudy
Mostly Cloudy
53.2 °F
Feels Like 53.2 °F
N
17.1
Wind Variable Wind from NE

Today
High -- | Low -- °F
--% Chance of Precip.
Yesterday
High -- | Low -- °F
Precip. -- in
Pressure 30.13 in
Visibility 50.0 miles
Clouds Scattered Clouds 6000 ft
Mostly Cloudy 10000 ft
Dew Point 31 °F
Humidity 42%
Rainfall 0.25 in
Snow Depth Not available.
6:56 AM 7:16 PM
Waning Crescent, 13% visible
METAR KBJC 241951Z 02016G23KT 50SM SCT060 BKN100 10/M02 A3013
Pressure 30.13 in
Visibility 50.0 miles
Clouds Scattered Clouds 6000 ft
Mostly Cloudy 10000 ft
Dew Point 31 °F
Humidity 42%
Rainfall 0.25 in
Snow Depth Not available.
6:56 AM 7:16 PM
Waning Crescent, 13% visible
METAR KBJC 241951Z 02016G23KT 50SM SCT060 BKN100 10/M02 A3013

Get Severe Weather Alerts

Thanks for signing up!

Be on the lookout for a verification email in your inbox.

You'll start receiving the daily forecast at 8 AM.

×

10-Day Weather Forecast

Almanac

Astronomy

Mar. 24, 2017 Rise Set
Actual Time
Civil Twilight
Nautical Twilight
Astronomical Twilight
Moon
Length of Visible Light
Length of Day
Tomorrow will be .
, % of the Moon is Illuminated

Today's Extremes

State Highs State Lows

Community

WunderPhotos

Upload Photos

1,962,540 photos uploaded!

WunderBlog® & News

Nearby

Air Quality

  Air Quality AQ Index Pollutant
Not available.

Snow Depth

Station Depth Elevation

Earthquake Activity

City Distance Mag. Time & Date
Minimum magnitude displayed is 2.5.

Earthquake Activity

City Distance Mag. Time & Date
Minimum magnitude displayed is 2.5.

Coastal Water Temperatures

Place Temperature

Stations

Nearby Weather Stations

Station Location Temp. Windchill Dew Point Humidity Wind Precip. Elev Updated Type
                   

Watches & Warnings

There are currently no watches in effect.